Terminal Aerodrome Forecast
Issued by NWS Wilmington, OH

Current Version | Previous Version | Graphics & Text | Print | Product List | Glossary On
Versions: 1 2 3 4 5 6 7 8 9 10 11 12 13 14 15 16 17 18 19 20 21 22 23
000
FTUS41 KILN 272100 AAA
TAFILN
TAF AMD
KILN 272115Z 2721/2818 24012G20KT P6SM OVC012
     FM280000 28014KT P6SM BKN025
      TEMPO 2800/2801 -SHRA
     FM280200 28010KT P6SM SCT050
     FM281000 29010KT P6SM OVC012
     FM281500 30012KT P6SM -SHRA OVC025=

USA.gov is the U.S. government's official web portal to all federal, state and local government web resources and services.